sensor_id;sensor_type;location;lat;lon;timestamp;temperature;humidity
35523;DHT22;61478;50.820;4.330;2023-02-28T00:00:29;4.10;99.90
35523;DHT22;61478;50.820;4.330;2023-02-28T00:02:56;4.20;99.90
35523;DHT22;61478;50.820;4.330;2023-02-28T00:05:25;4.30;99.90
35523;DHT22;61478;50.820;4.330;2023-02-28T00:07:52;4.10;99.90
35523;DHT22;61478;50.820;4.330;2023-02-28T00:10:20;3.70;99.90
35523;DHT22;61478;50.820;4.330;2023-02-28T00:12:49;3.60;99.90
35523;DHT22;61478;50.820;4.330;2023-02-28T00:15:19;3.70;99.90
35523;DHT22;61478;50.820;4.330;2023-02-28T00:17:52;3.90;99.90
35523;DHT22;61478;50.820;4.330;2023-02-28T00:20:21;4.10;99.90
35523;DHT22;61478;50.820;4.330;2023-02-28T00:22:54;4.20;99.90
35523;DHT22;61478;50.820;4.330;2023-02-28T00:25:30;4.20;99.90
35523;DHT22;61478;50.820;4.330;2023-02-28T00:27:59;4.30;99.90
35523;DHT22;61478;50.820;4.330;2023-02-28T00:30:32;3.60;99.90
35523;DHT22;61478;50.820;4.330;2023-02-28T00:33:01;3.40;99.90
35523;DHT22;61478;50.820;4.330;2023-02-28T00:35:30;3.40;99.90
35523;DHT22;61478;50.820;4.330;2023-02-28T00:37:59;3.30;99.90
35523;DHT22;61478;50.820;4.330;2023-02-28T00:40:28;3.10;99.90
35523;DHT22;61478;50.820;4.330;2023-02-28T00:42:58;3.10;99.90
35523;DHT22;61478;50.820;4.330;2023-02-28T00:45:24;3.40;99.90
35523;DHT22;61478;50.820;4.330;2023-02-28T00:47:59;3.20;99.90
35523;DHT22;61478;50.820;4.330;2023-02-28T00:50:30;3.10;99.90
35523;DHT22;61478;50.820;4.330;2023-02-28T00:53:02;3.00;99.90
35523;DHT22;61478;50.820;4.330;2023-02-28T00:55:31;3.30;99.90
35523;DHT22;61478;50.820;4.330;2023-02-28T00:57:57;3.30;99.90
35523;DHT22;61478;50.820;4.330;2023-02-28T01:00:24;3.20;99.90
35523;DHT22;61478;50.820;4.330;2023-02-28T01:02:57;3.00;99.90
35523;DHT22;61478;50.820;4.330;2023-02-28T01:05:26;2.90;99.90
35523;DHT22;61478;50.820;4.330;2023-02-28T01:07:52;2.90;99.90
35523;DHT22;61478;50.820;4.330;2023-02-28T01:10:18;2.90;99.90
35523;DHT22;61478;50.820;4.330;2023-02-28T01:12:49;2.70;99.90
35523;DHT22;61478;50.820;4.330;2023-02-28T01:15:20;2.60;99.90
35523;DHT22;61478;50.820;4.330;2023-02-28T01:17:46;2.60;99.90
35523;DHT22;61478;50.820;4.330;2023-02-28T01:20:12;2.70;99.90
35523;DHT22;61478;50.820;4.330;2023-02-28T01:22:38;2.70;99.90
35523;DHT22;61478;50.820;4.330;2023-02-28T01:25:05;2.80;99.90
35523;DHT22;61478;50.820;4.330;2023-02-28T01:27:31;2.80;99.90
35523;DHT22;61478;50.820;4.330;2023-02-28T01:30:01;2.70;99.90
35523;DHT22;61478;50.820;4.330;2023-02-28T01:32:30;2.80;99.90
35523;DHT22;61478;50.820;4.330;2023-02-28T01:34:56;2.60;99.90
35523;DHT22;61478;50.820;4.330;2023-02-28T01:37:22;2.60;99.90
35523;DHT22;61478;50.820;4.330;2023-02-28T01:39:52;2.70;99.90
35523;DHT22;61478;50.820;4.330;2023-02-28T01:42:21;2.90;99.90
35523;DHT22;61478;50.820;4.330;2023-02-28T01:47:20;2.50;99.90
35523;DHT22;61478;50.820;4.330;2023-02-28T01:49:47;2.60;99.90
35523;DHT22;61478;50.820;4.330;2023-02-28T01:52:17;2.80;99.90
35523;DHT22;61478;50.820;4.330;2023-02-28T01:54:51;3.10;99.90
35523;DHT22;61478;50.820;4.330;2023-02-28T01:57:23;3.40;99.90
35523;DHT22;61478;50.820;4.330;2023-02-28T02:00:03;3.50;99.90
35523;DHT22;61478;50.820;4.330;2023-02-28T02:02:31;3.30;99.90
35523;DHT22;61478;50.820;4.330;2023-02-28T02:05:04;3.20;99.90
35523;DHT22;61478;50.820;4.330;2023-02-28T02:07:36;3.40;99.90
35523;DHT22;61478;50.820;4.330;2023-02-28T02:10:18;3.40;99.90
35523;DHT22;61478;50.820;4.330;2023-02-28T02:13:09;3.60;99.90
35523;DHT22;61478;50.820;4.330;2023-02-28T02:18:51;3.60;99.90
35523;DHT22;61478;50.820;4.330;2023-02-28T02:21:47;3.40;99.90
35523;DHT22;61478;50.820;4.330;2023-02-28T02:27:28;3.10;99.90
35523;DHT22;61478;50.820;4.330;2023-02-28T02:32:45;2.90;99.90
35523;DHT22;61478;50.820;4.330;2023-02-28T02:35:38;2.70;99.90
35523;DHT22;61478;50.820;4.330;2023-02-28T02:38:32;2.50;99.90
35523;DHT22;61478;50.820;4.330;2023-02-28T02:41:14;2.80;99.90
35523;DHT22;61478;50.820;4.330;2023-02-28T02:43:53;2.90;99.90
35523;DHT22;61478;50.820;4.330;2023-02-28T02:46:28;2.70;99.90
35523;DHT22;61478;50.820;4.330;2023-02-28T02:48:56;2.50;99.90
35523;DHT22;61478;50.820;4.330;2023-02-28T02:51:24;2.30;99.90
35523;DHT22;61478;50.820;4.330;2023-02-28T02:54:02;2.30;99.90
35523;DHT22;61478;50.820;4.330;2023-02-28T02:56:32;2.20;99.90
35523;DHT22;61478;50.820;4.330;2023-02-28T02:59:10;2.30;99.90
35523;DHT22;61478;50.820;4.330;2023-02-28T03:01:41;2.20;99.90
35523;DHT22;61478;50.820;4.330;2023-02-28T03:04:15;2.00;99.90
35523;DHT22;61478;50.820;4.330;2023-02-28T03:06:42;2.00;99.90
35523;DHT22;61478;50.820;4.330;2023-02-28T03:09:11;2.10;99.90
35523;DHT22;61478;50.820;4.330;2023-02-28T03:11:37;2.30;99.90
35523;DHT22;61478;50.820;4.330;2023-02-28T03:14:15;2.40;99.90
35523;DHT22;61478;50.820;4.330;2023-02-28T03:22:49;1.90;99.90
35523;DHT22;61478;50.820;4.330;2023-02-28T03:30:49;1.90;99.90
35523;DHT22;61478;50.820;4.330;2023-02-28T03:33:44;1.90;99.90
35523;DHT22;61478;50.820;4.330;2023-02-28T03:36:25;1.90;99.90
35523;DHT22;61478;50.820;4.330;2023-02-28T03:39:00;1.80;99.90
35523;DHT22;61478;50.820;4.330;2023-02-28T03:41:45;1.70;99.90
35523;DHT22;61478;50.820;4.330;2023-02-28T03:44:28;1.70;99.90
35523;DHT22;61478;50.820;4.330;2023-02-28T03:47:07;1.80;99.90
35523;DHT22;61478;50.820;4.330;2023-02-28T03:49:40;1.80;99.90
35523;DHT22;61478;50.820;4.330;2023-02-28T03:52:09;1.70;99.90
35523;DHT22;61478;50.820;4.330;2023-02-28T03:54:48;1.70;99.90
35523;DHT22;61478;50.820;4.330;2023-02-28T03:57:40;1.70;99.90
35523;DHT22;61478;50.820;4.330;2023-02-28T04:00:17;1.70;99.90
35523;DHT22;61478;50.820;4.330;2023-02-28T04:02:45;1.70;99.90
35523;DHT22;61478;50.820;4.330;2023-02-28T04:05:11;1.80;99.90
35523;DHT22;61478;50.820;4.330;2023-02-28T04:07:37;1.80;99.90
35523;DHT22;61478;50.820;4.330;2023-02-28T04:10:04;1.90;99.90
35523;DHT22;61478;50.820;4.330;2023-02-28T04:12:31;1.90;99.90
35523;DHT22;61478;50.820;4.330;2023-02-28T04:14:56;1.70;99.90
35523;DHT22;61478;50.820;4.330;2023-02-28T04:17:22;1.70;99.90
35523;DHT22;61478;50.820;4.330;2023-02-28T04:19:49;1.60;99.90
35523;DHT22;61478;50.820;4.330;2023-02-28T04:22:15;1.80;99.90
35523;DHT22;61478;50.820;4.330;2023-02-28T04:24:42;1.80;99.90
35523;DHT22;61478;50.820;4.330;2023-02-28T04:27:09;1.80;99.90
35523;DHT22;61478;50.820;4.330;2023-02-28T04:29:35;1.80;99.90
35523;DHT22;61478;50.820;4.330;2023-02-28T04:32:02;1.70;99.90
35523;DHT22;61478;50.820;4.330;2023-02-28T04:34:30;1.90;99.90
35523;DHT22;61478;50.820;4.330;2023-02-28T04:36:57;2.20;99.90
35523;DHT22;61478;50.820;4.330;2023-02-28T04:39:24;2.40;99.90
35523;DHT22;61478;50.820;4.330;2023-02-28T04:41:50;2.30;99.90
35523;DHT22;61478;50.820;4.330;2023-02-28T04:44:17;1.80;99.90
35523;DHT22;61478;50.820;4.330;2023-02-28T04:46:43;1.50;99.90
35523;DHT22;61478;50.820;4.330;2023-02-28T04:49:13;1.50;99.90
35523;DHT22;61478;50.820;4.330;2023-02-28T04:51:39;1.50;99.90
35523;DHT22;61478;50.820;4.330;2023-02-28T04:54:05;1.40;99.90
35523;DHT22;61478;50.820;4.330;2023-02-28T04:56:32;1.50;99.90
35523;DHT22;61478;50.820;4.330;2023-02-28T04:58:57;1.60;99.90
35523;DHT22;61478;50.820;4.330;2023-02-28T05:01:26;1.60;99.90
35523;DHT22;61478;50.820;4.330;2023-02-28T05:03:54;1.30;99.90
35523;DHT22;61478;50.820;4.330;2023-02-28T05:06:21;1.30;99.90
35523;DHT22;61478;50.820;4.330;2023-02-28T05:08:49;1.30;99.90
35523;DHT22;61478;50.820;4.330;2023-02-28T05:11:17;1.50;99.90
35523;DHT22;61478;50.820;4.330;2023-02-28T05:13:43;1.40;99.90
35523;DHT22;61478;50.820;4.330;2023-02-28T05:16:09;1.50;99.90
35523;DHT22;61478;50.820;4.330;2023-02-28T05:18:36;1.60;99.90
35523;DHT22;61478;50.820;4.330;2023-02-28T05:21:02;1.50;99.90
35523;DHT22;61478;50.820;4.330;2023-02-28T05:23:28;1.60;99.90
35523;DHT22;61478;50.820;4.330;2023-02-28T05:25:55;2.00;99.90
35523;DHT22;61478;50.820;4.330;2023-02-28T05:28:21;2.20;99.90
35523;DHT22;61478;50.820;4.330;2023-02-28T05:30:47;2.50;99.90
35523;DHT22;61478;50.820;4.330;2023-02-28T05:33:13;2.50;99.90
35523;DHT22;61478;50.820;4.330;2023-02-28T05:35:41;2.70;99.90
35523;DHT22;61478;50.820;4.330;2023-02-28T05:38:11;2.90;99.90
35523;DHT22;61478;50.820;4.330;2023-02-28T05:40:42;3.10;99.90
35523;DHT22;61478;50.820;4.330;2023-02-28T05:43:10;3.10;99.90
35523;DHT22;61478;50.820;4.330;2023-02-28T05:45:37;3.10;99.90
35523;DHT22;61478;50.820;4.330;2023-02-28T05:48:03;3.20;99.90
35523;DHT22;61478;50.820;4.330;2023-02-28T05:50:29;3.30;99.90
35523;DHT22;61478;50.820;4.330;2023-02-28T05:52:55;3.40;99.90
35523;DHT22;61478;50.820;4.330;2023-02-28T05:55:21;3.40;99.90
35523;DHT22;61478;50.820;4.330;2023-02-28T05:57:47;3.40;99.90
35523;DHT22;61478;50.820;4.330;2023-02-28T06:00:13;3.30;99.90
35523;DHT22;61478;50.820;4.330;2023-02-28T06:02:41;3.30;99.90
35523;DHT22;61478;50.820;4.330;2023-02-28T06:05:14;3.30;99.90
35523;DHT22;61478;50.820;4.330;2023-02-28T06:07:41;3.20;99.90
35523;DHT22;61478;50.820;4.330;2023-02-28T06:10:08;3.30;99.90
35523;DHT22;61478;50.820;4.330;2023-02-28T06:12:35;3.50;99.90
35523;DHT22;61478;50.820;4.330;2023-02-28T06:15:01;3.40;99.90
35523;DHT22;61478;50.820;4.330;2023-02-28T06:17:27;3.30;99.90
35523;DHT22;61478;50.820;4.330;2023-02-28T06:19:53;3.20;99.90
35523;DHT22;61478;50.820;4.330;2023-02-28T06:22:19;3.30;99.90
35523;DHT22;61478;50.820;4.330;2023-02-28T06:24:45;3.50;99.90
35523;DHT22;61478;50.820;4.330;2023-02-28T06:27:11;3.50;99.90
35523;DHT22;61478;50.820;4.330;2023-02-28T06:29:37;3.60;99.90
35523;DHT22;61478;50.820;4.330;2023-02-28T06:32:05;3.70;99.90
35523;DHT22;61478;50.820;4.330;2023-02-28T06:34:31;3.80;99.90
35523;DHT22;61478;50.820;4.330;2023-02-28T06:36:59;3.80;99.90
35523;DHT22;61478;50.820;4.330;2023-02-28T06:39:29;3.70;99.90
35523;DHT22;61478;50.820;4.330;2023-02-28T06:41:55;3.70;99.90
35523;DHT22;61478;50.820;4.330;2023-02-28T06:44:21;3.80;99.90
35523;DHT22;61478;50.820;4.330;2023-02-28T06:46:48;3.90;99.90
35523;DHT22;61478;50.820;4.330;2023-02-28T06:49:15;3.90;99.90
35523;DHT22;61478;50.820;4.330;2023-02-28T06:51:42;3.90;99.90
35523;DHT22;61478;50.820;4.330;2023-02-28T06:54:11;4.00;99.90
35523;DHT22;61478;50.820;4.330;2023-02-28T06:56:37;4.00;99.90
35523;DHT22;61478;50.820;4.330;2023-02-28T06:59:04;4.00;99.90
35523;DHT22;61478;50.820;4.330;2023-02-28T07:01:31;4.00;99.90
35523;DHT22;61478;50.820;4.330;2023-02-28T07:03:58;4.10;99.90
35523;DHT22;61478;50.820;4.330;2023-02-28T07:06:26;4.10;99.90
35523;DHT22;61478;50.820;4.330;2023-02-28T07:08:53;4.10;99.90
35523;DHT22;61478;50.820;4.330;2023-02-28T07:11:20;4.00;99.90
35523;DHT22;61478;50.820;4.330;2023-02-28T07:13:49;4.20;99.90
35523;DHT22;61478;50.820;4.330;2023-02-28T07:16:15;4.20;99.90
35523;DHT22;61478;50.820;4.330;2023-02-28T07:18:41;4.30;99.90
35523;DHT22;61478;50.820;4.330;2023-02-28T07:21:09;4.30;99.90
35523;DHT22;61478;50.820;4.330;2023-02-28T07:23:36;4.20;99.90
35523;DHT22;61478;50.820;4.330;2023-02-28T07:26:04;4.10;99.90
35523;DHT22;61478;50.820;4.330;2023-02-28T07:28:30;4.20;99.90
35523;DHT22;61478;50.820;4.330;2023-02-28T07:30:56;4.30;99.90
35523;DHT22;61478;50.820;4.330;2023-02-28T07:33:22;4.40;99.90
35523;DHT22;61478;50.820;4.330;2023-02-28T07:35:49;4.40;99.90
35523;DHT22;61478;50.820;4.330;2023-02-28T07:38:15;4.50;99.90
35523;DHT22;61478;50.820;4.330;2023-02-28T07:40:42;4.50;99.90
35523;DHT22;61478;50.820;4.330;2023-02-28T07:43:08;4.40;99.90
35523;DHT22;61478;50.820;4.330;2023-02-28T07:45:34;4.40;99.90
35523;DHT22;61478;50.820;4.330;2023-02-28T07:48:00;4.40;99.90
35523;DHT22;61478;50.820;4.330;2023-02-28T07:50:26;4.50;99.90
35523;DHT22;61478;50.820;4.330;2023-02-28T07:52:57;4.50;99.90
35523;DHT22;61478;50.820;4.330;2023-02-28T07:55:23;4.40;99.90
35523;DHT22;61478;50.820;4.330;2023-02-28T07:57:49;4.60;99.90
35523;DHT22;61478;50.820;4.330;2023-02-28T08:02:42;4.60;99.90
35523;DHT22;61478;50.820;4.330;2023-02-28T08:05:08;4.40;99.90
35523;DHT22;61478;50.820;4.330;2023-02-28T08:07:34;4.40;99.90
35523;DHT22;61478;50.820;4.330;2023-02-28T08:10:00;4.50;99.90
35523;DHT22;61478;50.820;4.330;2023-02-28T08:12:27;4.40;99.90
35523;DHT22;61478;50.820;4.330;2023-02-28T08:14:53;4.20;99.90
35523;DHT22;61478;50.820;4.330;2023-02-28T08:17:19;4.30;99.90
35523;DHT22;61478;50.820;4.330;2023-02-28T08:19:46;4.30;99.90
35523;DHT22;61478;50.820;4.330;2023-02-28T08:22:12;4.30;99.90
35523;DHT22;61478;50.820;4.330;2023-02-28T08:24:41;4.30;99.90
35523;DHT22;61478;50.820;4.330;2023-02-28T08:27:08;4.30;99.90
35523;DHT22;61478;50.820;4.330;2023-02-28T08:29:34;4.50;99.90
35523;DHT22;61478;50.820;4.330;2023-02-28T08:32:02;4.40;99.90
35523;DHT22;61478;50.820;4.330;2023-02-28T08:34:30;4.30;99.90
35523;DHT22;61478;50.820;4.330;2023-02-28T08:36:59;4.30;99.90
35523;DHT22;61478;50.820;4.330;2023-02-28T08:39:26;4.30;99.90
35523;DHT22;61478;50.820;4.330;2023-02-28T08:41:57;4.30;99.90
35523;DHT22;61478;50.820;4.330;2023-02-28T08:44:24;4.40;99.90
35523;DHT22;61478;50.820;4.330;2023-02-28T08:46:50;4.40;99.90
35523;DHT22;61478;50.820;4.330;2023-02-28T08:49:18;4.40;99.90
35523;DHT22;61478;50.820;4.330;2023-02-28T08:51:44;4.30;99.90
35523;DHT22;61478;50.820;4.330;2023-02-28T08:54:10;4.50;99.90
35523;DHT22;61478;50.820;4.330;2023-02-28T08:56:38;4.50;99.90
35523;DHT22;61478;50.820;4.330;2023-02-28T08:59:04;4.40;99.90
35523;DHT22;61478;50.820;4.330;2023-02-28T09:01:30;4.30;99.90
35523;DHT22;61478;50.820;4.330;2023-02-28T09:03:58;4.20;99.90
35523;DHT22;61478;50.820;4.330;2023-02-28T09:06:26;4.20;99.90
35523;DHT22;61478;50.820;4.330;2023-02-28T09:08:53;4.10;99.90
35523;DHT22;61478;50.820;4.330;2023-02-28T09:11:22;4.20;99.90
35523;DHT22;61478;50.820;4.330;2023-02-28T09:13:51;4.10;99.90
35523;DHT22;61478;50.820;4.330;2023-02-28T09:16:29;4.20;99.90
35523;DHT22;61478;50.820;4.330;2023-02-28T09:18:55;4.30;99.90
35523;DHT22;61478;50.820;4.330;2023-02-28T09:21:21;4.50;99.90
35523;DHT22;61478;50.820;4.330;2023-02-28T09:23:48;4.70;99.90
35523;DHT22;61478;50.820;4.330;2023-02-28T09:26:21;4.70;99.90
35523;DHT22;61478;50.820;4.330;2023-02-28T09:28:48;4.80;99.90
35523;DHT22;61478;50.820;4.330;2023-02-28T09:31:25;4.70;99.90
35523;DHT22;61478;50.820;4.330;2023-02-28T09:33:55;4.70;99.90
35523;DHT22;61478;50.820;4.330;2023-02-28T09:36:23;4.60;99.90
35523;DHT22;61478;50.820;4.330;2023-02-28T09:38:50;4.70;99.90
35523;DHT22;61478;50.820;4.330;2023-02-28T09:41:23;4.80;99.90
35523;DHT22;61478;50.820;4.330;2023-02-28T09:43:55;4.80;99.90
35523;DHT22;61478;50.820;4.330;2023-02-28T09:46:35;4.90;99.90
35523;DHT22;61478;50.820;4.330;2023-02-28T09:49:07;5.00;99.90
35523;DHT22;61478;50.820;4.330;2023-02-28T09:54:18;5.20;99.90
35523;DHT22;61478;50.820;4.330;2023-02-28T09:56:48;5.40;99.90
35523;DHT22;61478;50.820;4.330;2023-02-28T10:05:36;6.20;99.90
35523;DHT22;61478;50.820;4.330;2023-02-28T10:08:18;6.50;99.90
35523;DHT22;61478;50.820;4.330;2023-02-28T10:10:47;6.40;99.50
35523;DHT22;61478;50.820;4.330;2023-02-28T10:13:31;6.30;99.90
35523;DHT22;61478;50.820;4.330;2023-02-28T10:16:22;6.30;99.00
35523;DHT22;61478;50.820;4.330;2023-02-28T10:18:56;6.30;98.10
35523;DHT22;61478;50.820;4.330;2023-02-28T10:21:31;6.30;97.30
35523;DHT22;61478;50.820;4.330;2023-02-28T10:24:19;6.30;97.10
35523;DHT22;61478;50.820;4.330;2023-02-28T10:26:47;6.20;96.20
35523;DHT22;61478;50.820;4.330;2023-02-28T10:29:16;6.10;97.10
35523;DHT22;61478;50.820;4.330;2023-02-28T10:31:42;6.10;96.40
35523;DHT22;61478;50.820;4.330;2023-02-28T10:34:12;6.20;96.20
35523;DHT22;61478;50.820;4.330;2023-02-28T10:36:38;6.50;96.50
35523;DHT22;61478;50.820;4.330;2023-02-28T10:39:34;6.50;94.00
35523;DHT22;61478;50.820;4.330;2023-02-28T10:42:00;6.30;94.40
35523;DHT22;61478;50.820;4.330;2023-02-28T10:44:26;6.60;93.90
35523;DHT22;61478;50.820;4.330;2023-02-28T10:46:52;6.80;93.00
35523;DHT22;61478;50.820;4.330;2023-02-28T10:49:28;6.90;92.40
35523;DHT22;61478;50.820;4.330;2023-02-28T10:51:59;7.00;92.80
35523;DHT22;61478;50.820;4.330;2023-02-28T10:54:34;7.40;91.30
35523;DHT22;61478;50.820;4.330;2023-02-28T10:57:17;7.30;89.20
35523;DHT22;61478;50.820;4.330;2023-02-28T10:59:43;7.30;88.30
35523;DHT22;61478;50.820;4.330;2023-02-28T11:02:39;7.40;89.20
35523;DHT22;61478;50.820;4.330;2023-02-28T11:05:30;7.60;88.80
35523;DHT22;61478;50.820;4.330;2023-02-28T11:08:06;8.10;85.30
35523;DHT22;61478;50.820;4.330;2023-02-28T11:10:36;8.70;81.90
35523;DHT22;61478;50.820;4.330;2023-02-28T11:13:02;9.60;80.00
35523;DHT22;61478;50.820;4.330;2023-02-28T11:15:33;10.10;76.50
35523;DHT22;61478;50.820;4.330;2023-02-28T11:18:14;10.30;74.50
35523;DHT22;61478;50.820;4.330;2023-02-28T11:20:48;10.50;73.70
35523;DHT22;61478;50.820;4.330;2023-02-28T11:23:16;10.70;72.30
35523;DHT22;61478;50.820;4.330;2023-02-28T11:25:48;11.10;72.80
35523;DHT22;61478;50.820;4.330;2023-02-28T11:28:26;11.10;70.70
35523;DHT22;61478;50.820;4.330;2023-02-28T11:33:54;11.20;68.80
35523;DHT22;61478;50.820;4.330;2023-02-28T11:36:26;11.50;67.90
35523;DHT22;61478;50.820;4.330;2023-02-28T11:38:58;11.20;66.70
35523;DHT22;61478;50.820;4.330;2023-02-28T11:46:54;11.50;65.40
35523;DHT22;61478;50.820;4.330;2023-02-28T11:55:14;11.20;64.80
35523;DHT22;61478;50.820;4.330;2023-02-28T12:03:31;11.40;65.30
35523;DHT22;61478;50.820;4.330;2023-02-28T12:19:19;9.80;67.70
35523;DHT22;61478;50.820;4.330;2023-02-28T12:27:19;10.10;68.20
35523;DHT22;61478;50.820;4.330;2023-02-28T12:30:02;9.70;66.70
35523;DHT22;61478;50.820;4.330;2023-02-28T12:32:38;10.20;66.80
35523;DHT22;61478;50.820;4.330;2023-02-28T12:35:12;10.10;66.20
35523;DHT22;61478;50.820;4.330;2023-02-28T12:37:55;10.30;65.90
35523;DHT22;61478;50.820;4.330;2023-02-28T12:40:27;10.40;65.00
35523;DHT22;61478;50.820;4.330;2023-02-28T12:43:14;10.40;64.00
35523;DHT22;61478;50.820;4.330;2023-02-28T12:45:57;10.50;65.20
35523;DHT22;61478;50.820;4.330;2023-02-28T12:48:29;10.60;64.80
35523;DHT22;61478;50.820;4.330;2023-02-28T12:50:57;10.60;65.50
35523;DHT22;61478;50.820;4.330;2023-02-28T12:53:35;10.60;64.90
35523;DHT22;61478;50.820;4.330;2023-02-28T12:58:48;10.30;63.40
35523;DHT22;61478;50.820;4.330;2023-02-28T13:09:56;10.20;65.50
35523;DHT22;61478;50.820;4.330;2023-02-28T13:12:23;9.90;64.20
35523;DHT22;61478;50.820;4.330;2023-02-28T13:14:50;9.70;64.50
35523;DHT22;61478;50.820;4.330;2023-02-28T13:17:20;9.90;64.90
35523;DHT22;61478;50.820;4.330;2023-02-28T13:24:55;9.40;64.80
35523;DHT22;61478;50.820;4.330;2023-02-28T13:27:38;9.10;65.50
35523;DHT22;61478;50.820;4.330;2023-02-28T13:38:38;9.20;67.40
35523;DHT22;61478;50.820;4.330;2023-02-28T13:49:20;8.80;66.70
35523;DHT22;61478;50.820;4.330;2023-02-28T13:52:18;8.90;66.10
35523;DHT22;61478;50.820;4.330;2023-02-28T14:05:42;8.60;66.20
35523;DHT22;61478;50.820;4.330;2023-02-28T14:08:29;8.70;65.90
35523;DHT22;61478;50.820;4.330;2023-02-28T14:11:08;8.70;65.90
35523;DHT22;61478;50.820;4.330;2023-02-28T14:13:41;8.60;66.00
35523;DHT22;61478;50.820;4.330;2023-02-28T14:16:25;8.50;66.90
35523;DHT22;61478;50.820;4.330;2023-02-28T14:21:39;8.30;66.40
35523;DHT22;61478;50.820;4.330;2023-02-28T14:24:28;8.40;66.90
35523;DHT22;61478;50.820;4.330;2023-02-28T14:32:50;8.00;68.00
35523;DHT22;61478;50.820;4.330;2023-02-28T14:38:39;7.60;68.30
35523;DHT22;61478;50.820;4.330;2023-02-28T14:41:21;7.50;69.40
35523;DHT22;61478;50.820;4.330;2023-02-28T14:44:00;7.60;69.80
35523;DHT22;61478;50.820;4.330;2023-02-28T14:46:32;7.70;70.70
35523;DHT22;61478;50.820;4.330;2023-02-28T14:49:00;7.90;69.90
35523;DHT22;61478;50.820;4.330;2023-02-28T14:51:26;7.80;70.10
35523;DHT22;61478;50.820;4.330;2023-02-28T14:54:01;7.70;69.70
35523;DHT22;61478;50.820;4.330;2023-02-28T14:56:49;7.70;69.30
35523;DHT22;61478;50.820;4.330;2023-02-28T14:59:28;7.70;70.20
35523;DHT22;61478;50.820;4.330;2023-02-28T15:02:21;7.80;69.70
35523;DHT22;61478;50.820;4.330;2023-02-28T15:05:01;7.40;70.40
35523;DHT22;61478;50.820;4.330;2023-02-28T15:07:28;7.40;71.00
35523;DHT22;61478;50.820;4.330;2023-02-28T15:10:23;7.40;70.70
35523;DHT22;61478;50.820;4.330;2023-02-28T15:12:53;7.50;70.50
35523;DHT22;61478;50.820;4.330;2023-02-28T15:15:20;7.40;70.90
35523;DHT22;61478;50.820;4.330;2023-02-28T15:17:50;7.40;71.60
35523;DHT22;61478;50.820;4.330;2023-02-28T15:20:18;7.40;71.80
35523;DHT22;61478;50.820;4.330;2023-02-28T15:22:46;7.40;71.90
35523;DHT22;61478;50.820;4.330;2023-02-28T15:25:17;7.60;71.70
35523;DHT22;61478;50.820;4.330;2023-02-28T15:27:48;7.70;72.10
35523;DHT22;61478;50.820;4.330;2023-02-28T15:30:19;7.60;71.40
35523;DHT22;61478;50.820;4.330;2023-02-28T15:33:23;7.60;72.00
35523;DHT22;61478;50.820;4.330;2023-02-28T15:35:48;7.50;71.80
35523;DHT22;61478;50.820;4.330;2023-02-28T15:38:25;7.50;72.60
35523;DHT22;61478;50.820;4.330;2023-02-28T15:40:54;7.60;73.40
35523;DHT22;61478;50.820;4.330;2023-02-28T15:43:32;7.60;72.90
35523;DHT22;61478;50.820;4.330;2023-02-28T15:46:06;7.60;73.60
35523;DHT22;61478;50.820;4.330;2023-02-28T15:48:53;7.50;73.50
35523;DHT22;61478;50.820;4.330;2023-02-28T15:51:24;7.50;74.50
35523;DHT22;61478;50.820;4.330;2023-02-28T15:53:58;7.30;74.40
35523;DHT22;61478;50.820;4.330;2023-02-28T15:58:54;7.20;74.40
35523;DHT22;61478;50.820;4.330;2023-02-28T16:01:31;7.20;74.60
35523;DHT22;61478;50.820;4.330;2023-02-28T16:04:04;7.30;74.60
35523;DHT22;61478;50.820;4.330;2023-02-28T16:06:37;7.30;74.50
35523;DHT22;61478;50.820;4.330;2023-02-28T16:09:05;7.30;76.10
35523;DHT22;61478;50.820;4.330;2023-02-28T16:11:34;7.40;75.00
35523;DHT22;61478;50.820;4.330;2023-02-28T16:14:02;7.60;75.00
35523;DHT22;61478;50.820;4.330;2023-02-28T16:16:29;7.50;74.40
35523;DHT22;61478;50.820;4.330;2023-02-28T16:18:56;7.40;74.20
35523;DHT22;61478;50.820;4.330;2023-02-28T16:21:23;7.30;74.70
35523;DHT22;61478;50.820;4.330;2023-02-28T16:23:50;7.10;75.10
35523;DHT22;61478;50.820;4.330;2023-02-28T16:26:22;7.10;75.40
35523;DHT22;61478;50.820;4.330;2023-02-28T16:28:49;7.10;75.40
35523;DHT22;61478;50.820;4.330;2023-02-28T16:31:16;7.00;75.70
35523;DHT22;61478;50.820;4.330;2023-02-28T16:33:44;7.10;76.60
35523;DHT22;61478;50.820;4.330;2023-02-28T16:36:19;7.10;77.00
35523;DHT22;61478;50.820;4.330;2023-02-28T16:38:45;7.10;77.20
35523;DHT22;61478;50.820;4.330;2023-02-28T16:41:18;7.00;77.20
35523;DHT22;61478;50.820;4.330;2023-02-28T16:43:50;7.00;77.90
35523;DHT22;61478;50.820;4.330;2023-02-28T16:46:17;6.90;78.10
35523;DHT22;61478;50.820;4.330;2023-02-28T16:48:44;7.20;79.40
35523;DHT22;61478;50.820;4.330;2023-02-28T16:51:15;7.10;78.50
35523;DHT22;61478;50.820;4.330;2023-02-28T16:53:41;7.10;78.20
35523;DHT22;61478;50.820;4.330;2023-02-28T16:56:17;7.10;78.20
35523;DHT22;61478;50.820;4.330;2023-02-28T16:58:43;7.00;78.30
35523;DHT22;61478;50.820;4.330;2023-02-28T17:01:11;7.00;77.80
35523;DHT22;61478;50.820;4.330;2023-02-28T17:03:37;6.90;78.60
35523;DHT22;61478;50.820;4.330;2023-02-28T17:06:04;6.90;78.50
35523;DHT22;61478;50.820;4.330;2023-02-28T17:08:30;6.70;79.00
35523;DHT22;61478;50.820;4.330;2023-02-28T17:10:58;6.80;79.60
35523;DHT22;61478;50.820;4.330;2023-02-28T17:13:24;6.90;80.90
35523;DHT22;61478;50.820;4.330;2023-02-28T17:15:50;6.80;80.40
35523;DHT22;61478;50.820;4.330;2023-02-28T17:18:18;6.80;80.20
35523;DHT22;61478;50.820;4.330;2023-02-28T17:20:45;6.70;80.80
35523;DHT22;61478;50.820;4.330;2023-02-28T17:23:11;6.80;81.40
35523;DHT22;61478;50.820;4.330;2023-02-28T17:25:37;6.90;80.90
35523;DHT22;61478;50.820;4.330;2023-02-28T17:28:04;6.90;81.00
35523;DHT22;61478;50.820;4.330;2023-02-28T17:30:33;6.70;81.30
35523;DHT22;61478;50.820;4.330;2023-02-28T17:32:59;6.70;81.30
35523;DHT22;61478;50.820;4.330;2023-02-28T17:35:25;6.70;81.50
35523;DHT22;61478;50.820;4.330;2023-02-28T17:37:52;6.60;81.60
35523;DHT22;61478;50.820;4.330;2023-02-28T17:40:21;6.70;85.70
35523;DHT22;61478;50.820;4.330;2023-02-28T17:42:47;6.90;86.20
35523;DHT22;61478;50.820;4.330;2023-02-28T17:45:14;7.00;85.00
35523;DHT22;61478;50.820;4.330;2023-02-28T17:47:42;7.00;85.80
35523;DHT22;61478;50.820;4.330;2023-02-28T17:50:21;6.80;82.30
35523;DHT22;61478;50.820;4.330;2023-02-28T17:52:47;6.60;82.20
35523;DHT22;61478;50.820;4.330;2023-02-28T17:55:13;6.60;88.50
35523;DHT22;61478;50.820;4.330;2023-02-28T17:57:39;6.60;87.50
35523;DHT22;61478;50.820;4.330;2023-02-28T18:00:08;6.50;84.50
35523;DHT22;61478;50.820;4.330;2023-02-28T18:02:34;6.50;86.20
35523;DHT22;61478;50.820;4.330;2023-02-28T18:05:00;6.50;85.80
35523;DHT22;61478;50.820;4.330;2023-02-28T18:07:25;6.50;89.90
35523;DHT22;61478;50.820;4.330;2023-02-28T18:09:51;6.40;92.70
35523;DHT22;61478;50.820;4.330;2023-02-28T18:12:17;6.40;91.10
35523;DHT22;61478;50.820;4.330;2023-02-28T18:14:43;6.30;93.00
35523;DHT22;61478;50.820;4.330;2023-02-28T18:17:11;6.40;92.80